EGAC Airport Information

Runway Information
Runway 04 Length 6001 ft width 148 ft
Elevation 13 ft Threshold 303 ft Heading 35
Runway 22 Length 6001 ft Width 148 ft
Elevation 12 ft Threshold 0 ft Heading 215
Airport Frequencies
Type APP Name BELFAST AP Frequency 130.85 MHZ
Type ATIS Name ATIS Frequency 136.625 MHZ
Type TWR Name BELFAST TW Frequency 122.825 MHZ
Airport Navaids
Airport Weather Information & NOTAM
ADDS - METARS form results

(2035 UTC 26 March 2019)
Data provider http://aviationweather.gov/metar/data/
 
METAR text: EGAC 262020Z AUTO 25007KT 9999 OVC040/// 10/05 Q1034
Conditions at: EGAC (BELFAST HARBOUR , GB) observed 2020 UTC 26 March 2019
Temperature: 10.0°C (50°F)
Dewpoint: 5.0°C (41°F) [RH = 71%]
Pressure (altimeter): 30.53 inches Hg (1034.0 mb)
Winds: from the WSW (250 degrees) at 8 MPH (7 knots; 3.6 m/s)
Visibility: 6 or more miles (10+ km)
Ceiling: 4000 feet AGL
Clouds: overcast cloud deck at 4000 feet AGL
Weather: no significant weather observed at this time

METAR text: EGAC 261950Z AUTO 26006KT 9999 OVC039/// 10/05 Q1033
Conditions at: EGAC (BELFAST HARBOUR , GB) observed 1950 UTC 26 March 2019
Temperature: 10.0°C (50°F)
Dewpoint: 5.0°C (41°F) [RH = 71%]
Pressure (altimeter): 30.50 inches Hg (1033.0 mb)
Winds: from the W (260 degrees) at 7 MPH (6 knots; 3.1 m/s)
Visibility: 6 or more miles (10+ km)
Ceiling: 3900 feet AGL
Clouds: overcast cloud deck at 3900 feet AGL
Weather: no significant weather observed at this time

Forecast for: EGAC (BELFAST HARBOUR , GB)
Text: TAF EGAC 261656Z 2618/2622 27009KT 9999 BKN035
Forecast period: 1800 to 2200 UTC 26 March 2019
Forecast type: FROM: standard forecast or significant change
Winds: from the W (270 degrees) at 10 MPH (9 knots; 4.6 m/s)
Visibility: 6 or more miles 10+ km)
Ceiling: 3500 feet AGL
Clouds: broken clouds at 3500 feet AGL
Weather: no significant weather forecast for this period